Terminal Aerodrome Forecast
Issued by NWS

Home | Current Version | Previous Version | Text Only | Print | Product List | Glossary On
Versions: 1 2 3 4 5 6 7 8 9 10 11 12 13 14 15 16 17 18 19 20 21 22 23 24 25 26 27 28 29 30 31 32 33 34 35 36 37 38 39 40 41 42
000
FTUS42 KGSP 022330
TAFHKY
TAF
KHKY 022330Z 0300/0324 35006KT P6SM BKN240
     FM030800 05004KT P6SM OVC025
     FM031200 04004KT P6SM OVC010
     FM031500 06003KT 5SM -RA OVC008
     FM031800 00000KT 4SM -RA BR OVC006
     FM032200 00000KT P6SM OVC008=

USA.gov is the U.S. government's official web portal to all federal, state and local government web resources and services.